^^
Station Historical Data
Daily Summary for March 15, 2021 Units:  English    Metric   Both
Daily Weekly Monthly Yearly
  High: Low: Average:
Temperature: 34.4 °F 25.1 °F 29.8 °F
Dew Point: 22 °F 13.6 °F 17.4 °F
Humidity: 71% 44% 60%
Wind Speed: 8mph 1mph 4.6mph
Wind Gust: 15mph - -
Wind- - East
Pressure: 30.53 in 30.15 in -
Precipitation: 0.00 in    
 
 
Tabular Data for March 15, 2021
Time Temperature Dew Point Pressure Wind Wind Speed Wind Gust Humidity Rainfall Rate (Hourly) solar
00:00 29.3 °F 19.3 °F 30.52 in ENE 4 mph 4 mph 66% 0.00 in 0 W/m2
00:05 29.2 °F 19.6 °F 30.52 in East 4 mph 4 mph 67% 0.00 in 0 W/m2
00:10 29.2 °F 20.3 °F 30.51 in North 3 mph 5 mph 69% 0.00 in 0 W/m2
00:15 29.3 °F 20 °F 30.52 in ENE 4 mph 5 mph 68% 0.00 in 0 W/m2
00:20 29.3 °F 20.4 °F 30.51 in ESE 4 mph 4 mph 69% 0.00 in 0 W/m2
00:25 29.3 °F 20.7 °F 30.51 in NNW 4 mph 4 mph 70% 0.00 in 0 W/m2
00:30 29.2 °F 20.6 °F 30.51 in NE 4 mph 4 mph 70% 0.00 in 0 W/m2
00:35 29.2 °F 20.3 °F 30.51 in NE 4 mph 4 mph 69% 0.00 in 0 W/m2
00:40 29.2 °F 20.3 °F 30.51 in NNE 4 mph 5 mph 69% 0.00 in 0 W/m2
00:45 29.2 °F 21 °F 30.51 in ENE 3 mph 5 mph 71% 0.00 in 0 W/m2
00:50 29.2 °F 21 °F 30.51 in WNW 3 mph 3 mph 71% 0.00 in 0 W/m2
00:55 29.1 °F 20.5 °F 30.51 in NNE 4 mph 4 mph 70% 0.00 in 0 W/m2
01:00 29.1 °F 20.9 °F 30.51 in SE 4 mph 4 mph 71% 0.00 in 0 W/m2
01:05 29.1 °F 20.9 °F 30.51 in NE 4 mph 4 mph 71% 0.00 in 0 W/m2
01:10 29.1 °F 20.5 °F 30.51 in ENE 4 mph 4 mph 70% 0.00 in 0 W/m2
01:15 29.1 °F 20.9 °F 30.51 in North 4 mph 4 mph 71% 0.00 in 0 W/m2
01:20 29 °F 20.8 °F 30.51 in NNW 3 mph 5 mph 71% 0.00 in 0 W/m2
01:25 29.1 °F 20.5 °F 30.51 in NE 3 mph 5 mph 70% 0.00 in 0 W/m2
01:30 29.2 °F 21 °F 30.51 in East 4 mph 5 mph 71% 0.00 in 0 W/m2
01:35 29.2 °F 20.6 °F 30.51 in NE 3 mph 5 mph 70% 0.00 in 0 W/m2
01:40 29.1 °F 20.5 °F 30.51 in North 3 mph 9 mph 70% 0.00 in 0 W/m2
01:45 29.2 °F 20.6 °F 30.51 in ENE 4 mph 9 mph 70% 0.00 in 0 W/m2
01:50 29.1 °F 20.5 °F 30.52 in NE 3 mph 4 mph 70% 0.00 in 0 W/m2
01:55 29.1 °F 20.2 °F 30.52 in North 3 mph 5 mph 69% 0.00 in 0 W/m2
02:00 29.1 °F 19.8 °F 30.51 in NE 3 mph 3 mph 68% 0.00 in 0 W/m2
02:05 29.2 °F 20.3 °F 30.52 in ENE 4 mph 4 mph 69% 0.00 in 0 W/m2
02:10 29.1 °F 20.2 °F 30.52 in NE 4 mph 4 mph 69% 0.00 in 0 W/m2
02:15 29.1 °F 18.8 °F 30.52 in NE 4 mph 4 mph 65% 0.00 in 0 W/m2
02:20 29.2 °F 18.2 °F 30.52 in ENE 5 mph 5 mph 63% 0.00 in 0 W/m2
02:25 29.1 °F 18.1 °F 30.52 in ENE 4 mph 5 mph 63% 0.00 in 0 W/m2
02:30 29.1 °F 17.3 °F 30.52 in NE 4 mph 4 mph 61% 0.00 in 0 W/m2
02:35 29 °F 17.6 °F 30.52 in ENE 4 mph 4 mph 62% 0.00 in 0 W/m2
02:40 28.9 °F 17.9 °F 30.52 in East 4 mph 7 mph 63% 0.00 in 0 W/m2
02:45 28.9 °F 16.7 °F 30.52 in ENE 5 mph 7 mph 60% 0.00 in 0 W/m2
02:50 29 °F 16.8 °F 30.52 in ENE 4 mph 4 mph 60% 0.00 in 0 W/m2
02:55 28.9 °F 17.5 °F 30.52 in ENE 4 mph 4 mph 62% 0.00 in 0 W/m2
03:00 28.9 °F 17.1 °F 30.53 in NE 4 mph 5 mph 61% 0.00 in 0 W/m2
03:05 28.8 °F 17.4 °F 30.53 in East 4 mph 5 mph 62% 0.00 in 0 W/m2
03:10 28.6 °F 17.6 °F 30.53 in East 4 mph 8 mph 63% 0.00 in 0 W/m2
03:15 28.7 °F 16.6 °F 30.53 in East 4 mph 8 mph 60% 0.00 in 0 W/m2
03:20 28.5 °F 17.1 °F 30.52 in ENE 3 mph 3 mph 62% 0.00 in 0 W/m2
03:25 28.5 °F 16.4 °F 30.52 in ENE 3 mph 3 mph 60% 0.00 in 0 W/m2
03:30 28.4 °F 16.3 °F 30.52 in East 4 mph 4 mph 60% 0.00 in 0 W/m2
03:35 28.2 °F 16.1 °F 30.52 in East 3 mph 4 mph 60% 0.00 in 0 W/m2
03:40 27.8 °F 15.7 °F 30.52 in East 2 mph 2 mph 60% 0.00 in 0 W/m2
03:45 27.6 °F 15.5 °F 30.52 in East 2 mph 2 mph 60% 0.00 in 0 W/m2
03:50 27.5 °F 15.4 °F 30.53 in ESE 1 mph 7 mph 60% 0.00 in 0 W/m2
03:55 27.4 °F 15.3 °F 30.53 in ESE 2 mph 7 mph 60% 0.00 in 0 W/m2
04:00 27.3 °F 15.6 °F 30.53 in ESE 2 mph 2 mph 61% 0.00 in 0 W/m2
04:05 27.1 °F 15.4 °F 30.53 in ESE 1 mph 2 mph 61% 0.00 in 0 W/m2
04:10 27 °F 15.3 °F 30.53 in ESE 2 mph 2 mph 61% 0.00 in 0 W/m2
04:15 26.9 °F 15.6 °F 30.53 in ESE 1 mph 2 mph 62% 0.00 in 0 W/m2
04:20 26.8 °F 15.1 °F 30.53 in ESE 1 mph 1 mph 61% 0.00 in 0 W/m2
04:25 26.6 °F 15.3 °F 30.53 in East 1 mph 1 mph 62% 0.00 in 0 W/m2
04:30 26.4 °F 15.1 °F 30.53 in East 1 mph 1 mph 62% 0.00 in 0 W/m2
04:35 26.3 °F 15 °F 30.53 in East 1 mph 1 mph 62% 0.00 in 0 W/m2
04:40 26.1 °F 15.2 °F 30.53 in ENE 1 mph 2 mph 63% 0.00 in 0 W/m2
04:45 26.1 °F 14.8 °F 30.52 in East 2 mph 2 mph 62% 0.00 in 0 W/m2
04:50 26.2 °F 14.6 °F 30.52 in East 2 mph 3 mph 61% 0.00 in 0 W/m2
04:55 26.3 °F 14.7 °F 30.52 in East 2 mph 3 mph 61% 0.00 in 0 W/m2
05:00 26.3 °F 14.7 °F 30.52 in East 2 mph 2 mph 61% 0.00 in 0 W/m2
05:05 26.2 °F 14.6 °F 30.52 in East 2 mph 3 mph 61% 0.00 in 0 W/m2
05:10 26.2 °F 14.6 °F 30.51 in ESE 2 mph 3 mph 61% 0.00 in 0 W/m2
05:15 26.1 °F 14.5 °F 30.52 in East 2 mph 3 mph 61% 0.00 in 0 W/m2
05:20 26.2 °F 14.6 °F 30.52 in East 2 mph 2 mph 61% 0.00 in 0 W/m2
05:25 26 °F 14.4 °F 30.51 in East 2 mph 2 mph 61% 0.00 in 0 W/m2
05:30 26.1 °F 14.5 °F 30.51 in East 2 mph 3 mph 61% 0.00 in 0 W/m2
05:35 26 °F 14.4 °F 30.51 in ENE 2 mph 3 mph 61% 0.00 in 0 W/m2
05:40 26 °F 14 °F 30.51 in ESE 2 mph 2 mph 60% 0.00 in 0 W/m2
05:45 25.9 °F 13.9 °F 30.51 in ENE 2 mph 2 mph 60% 0.00 in 0 W/m2
05:50 26 °F 14 °F 30.51 in East 2 mph 2 mph 60% 0.00 in 0 W/m2
05:55 25.9 °F 13.9 °F 30.50 in ENE 2 mph 2 mph 60% 0.00 in 0 W/m2
06:00 26 °F 14.4 °F 30.50 in East 2 mph 3 mph 61% 0.00 in 0 W/m2
06:05 26 °F 15.1 °F 30.51 in East 3 mph 4 mph 63% 0.00 in 0 W/m2
06:10 26 °F 15.1 °F 30.51 in East 3 mph 3 mph 63% 0.00 in 0 W/m2
06:15 26.1 °F 15.6 °F 30.51 in ESE 3 mph 3 mph 64% 0.00 in 0 W/m2
06:20 26.1 °F 15.2 °F 30.51 in ENE 3 mph 3 mph 63% 0.00 in 0 W/m2
06:25 26.1 °F 15.6 °F 30.51 in East 3 mph 4 mph 64% 0.00 in 0 W/m2
06:30 26 °F 15.8 °F 30.51 in East 3 mph 3 mph 65% 0.00 in 0 W/m2
06:35 26 °F 15.1 °F 30.52 in ENE 3 mph 3 mph 63% 0.00 in 0 W/m2
06:40 26 °F 15.5 °F 30.52 in ENE 3 mph 3 mph 64% 0.00 in 0 W/m2
06:45 25.9 °F 14.7 °F 30.52 in East 3 mph 3 mph 62% 0.00 in 0 W/m2
06:50 25.8 °F 14.2 °F 30.52 in ESE 3 mph 6 mph 61% 0.00 in 0 W/m2
06:55 25.6 °F 13.6 °F 30.51 in ESE 3 mph 6 mph 60% 0.00 in 0 W/m2
07:00 25.5 °F 13.9 °F 30.51 in ENE 3 mph 3 mph 61% 0.00 in 0 W/m2
07:05 25.6 °F 13.6 °F 30.51 in East 3 mph 3 mph 60% 0.00 in 0 W/m2
07:10 25.4 °F 13.8 °F 30.51 in East 3 mph 5 mph 61% 0.00 in 0 W/m2
07:15 25.4 °F 13.8 °F 30.51 in East 3 mph 5 mph 61% 0.00 in 0 W/m2
07:20 25.4 °F 14.2 °F 30.50 in ESE 3 mph 4 mph 62% 0.00 in 0 W/m2
07:25 25.4 °F 14.2 °F 30.50 in East 3 mph 4 mph 62% 0.00 in 0 W/m2
07:30 25.3 °F 14.5 °F 30.51 in East 3 mph 3 mph 63% 0.00 in 0 W/m2
07:35 25.3 °F 14.8 °F 30.51 in East 3 mph 4 mph 64% 0.00 in 0 W/m2
07:40 25.3 °F 15.2 °F 30.51 in ESE 3 mph 3 mph 65% 0.00 in 0 W/m2
07:45 25.2 °F 15.1 °F 30.51 in East 3 mph 3 mph 65% 0.00 in 5 W/m2
07:50 25.1 °F 15.3 °F 30.51 in ESE 3 mph 3 mph 66% 0.00 in 9 W/m2
07:55 25.2 °F 14.7 °F 30.51 in ENE 4 mph 4 mph 64% 0.00 in 11 W/m2
08:00 25.2 °F 14.7 °F 30.51 in East 4 mph 4 mph 64% 0.00 in 14 W/m2
08:05 25.2 °F 14.7 °F 30.50 in East 4 mph 4 mph 64% 0.00 in 18 W/m2
08:10 25.3 °F 14.8 °F 30.50 in ESE 3 mph 3 mph 64% 0.00 in 21 W/m2
08:15 25.3 °F 14.8 °F 30.50 in East 4 mph 4 mph 64% 0.00 in 32 W/m2
08:20 25.4 °F 15.3 °F 30.50 in East 5 mph 5 mph 65% 0.00 in 54 W/m2
08:25 25.6 °F 15.5 °F 30.50 in ENE 5 mph 5 mph 65% 0.00 in 77 W/m2
08:30 25.7 °F 15.6 °F 30.50 in ENE 4 mph 4 mph 65% 0.00 in 90 W/m2
08:35 26 °F 15.8 °F 30.50 in East 4 mph 4 mph 65% 0.00 in 105 W/m2
08:40 26.1 °F 16.6 °F 30.50 in East 3 mph 3 mph 67% 0.00 in 121 W/m2
08:45 26.2 °F 16.7 °F 30.50 in East 4 mph 7 mph 67% 0.00 in 135 W/m2
08:50 26.4 °F 16.9 °F 30.51 in East 5 mph 5 mph 67% 0.00 in 149 W/m2
08:55 26.6 °F 16.8 °F 30.51 in ENE 5 mph 5 mph 66% 0.00 in 163 W/m2
09:00 26.7 °F 16.9 °F 30.51 in ESE 5 mph 5 mph 66% 0.00 in 179 W/m2
09:05 27 °F 16.8 °F 30.51 in ENE 5 mph 5 mph 65% 0.00 in 190 W/m2
09:10 27.4 °F 17.2 °F 30.51 in ESE 4 mph 7 mph 65% 0.00 in 207 W/m2
09:15 27.4 °F 17.2 °F 30.51 in East 6 mph 7 mph 65% 0.00 in 223 W/m2
09:20 27.5 °F 16.5 °F 30.51 in ESE 6 mph 7 mph 63% 0.00 in 234 W/m2
09:25 27.6 °F 16.6 °F 30.51 in NE 6 mph 9 mph 63% 0.00 in 236 W/m2
09:30 27.6 °F 16.6 °F 30.51 in SE 6 mph 7 mph 63% 0.00 in 250 W/m2
09:35 27.9 °F 16.6 °F 30.51 in East 7 mph 13 mph 62% 0.00 in 251 W/m2
09:40 27.9 °F 16.2 °F 30.51 in East 7 mph 7 mph 61% 0.00 in 186 W/m2
09:45 28.3 °F 16.2 °F 30.51 in East 6 mph 13 mph 60% 0.00 in 230 W/m2
09:50 28.6 °F 16.1 °F 30.51 in ENE 6 mph 6 mph 59% 0.00 in 206 W/m2
09:55 28.8 °F 15.9 °F 30.51 in ESE 7 mph 7 mph 58% 0.00 in 188 W/m2
10:00 29.1 °F 16.9 °F 30.51 in ENE 7 mph 8 mph 60% 0.00 in 167 W/m2
10:05 29.4 °F 17.6 °F 30.51 in ENE 7 mph 8 mph 61% 0.00 in 185 W/m2
10:10 29.4 °F 17.6 °F 30.51 in East 6 mph 7 mph 61% 0.00 in 283 W/m2
10:15 29.6 °F 17.4 °F 30.51 in ESE 6 mph 7 mph 60% 0.00 in 322 W/m2
10:20 29.7 °F 17.5 °F 30.51 in ENE 6 mph 6 mph 60% 0.00 in 272 W/m2
10:25 29.7 °F 18.3 °F 30.51 in ESE 7 mph 7 mph 62% 0.00 in 183 W/m2
10:30 29.2 °F 17.8 °F 30.51 in SE 6 mph 6 mph 62% 0.00 in 309 W/m2
10:35 29.4 °F 18.3 °F 30.50 in ESE 6 mph 6 mph 63% 0.00 in 343 W/m2
10:40 30.1 °F 18.3 °F 30.51 in ESE 6 mph 8 mph 61% 0.00 in 461 W/m2
10:45 29.8 °F 17.2 °F 30.50 in ESE 6 mph 8 mph 59% 0.00 in 387 W/m2
10:50 30.4 °F 18.5 °F 30.50 in East 6 mph 6 mph 61% 0.00 in 418 W/m2
10:55 31.1 °F 18.8 °F 30.50 in ESE 5 mph 6 mph 60% 0.00 in 355 W/m2
11:00 31 °F 17.9 °F 30.50 in East 5 mph 10 mph 58% 0.00 in 508 W/m2
11:05 31.2 °F 18.1 °F 30.50 in ENE 6 mph 10 mph 58% 0.00 in 529 W/m2
11:10 30.4 °F 18.5 °F 30.50 in ESE 6 mph 7 mph 61% 0.00 in 541 W/m2
11:15 30.8 °F 18.1 °F 30.50 in ESE 6 mph 7 mph 59% 0.00 in 555 W/m2
11:20 31 °F 17.5 °F 30.50 in SE 7 mph 9 mph 57% 0.00 in 573 W/m2
11:25 30.9 °F 17.4 °F 30.50 in ESE 7 mph 11 mph 57% 0.00 in 582 W/m2
11:30 31.4 °F 18.3 °F 30.50 in East 8 mph 8 mph 58% 0.00 in 606 W/m2
11:35 31 °F 17.1 °F 30.50 in SE 8 mph 8 mph 56% 0.00 in 610 W/m2
11:40 30.6 °F 17.2 °F 30.49 in ESE 8 mph 8 mph 57% 0.00 in 478 W/m2
11:45 30.9 °F 18.2 °F 30.49 in ESE 7 mph 8 mph 59% 0.00 in 527 W/m2
11:50 31.3 °F 17.4 °F 30.48 in ESE 6 mph 7 mph 56% 0.00 in 468 W/m2
11:55 31.2 °F 17.7 °F 30.49 in ENE 6 mph 8 mph 57% 0.00 in 469 W/m2
12:00 31.2 °F 17.3 °F 30.49 in ESE 6 mph 6 mph 56% 0.00 in 450 W/m2
12:05 31 °F 19.5 °F 30.49 in SE 7 mph 8 mph 62% 0.00 in 401 W/m2
12:10 31.2 °F 18.1 °F 30.49 in East 6 mph 6 mph 58% 0.00 in 613 W/m2
12:15 30.9 °F 18.6 °F 30.49 in ESE 6 mph 9 mph 60% 0.00 in 417 W/m2
12:20 31.3 °F 18.6 °F 30.48 in SE 7 mph 7 mph 59% 0.00 in 547 W/m2
12:25 32.3 °F 19.2 °F 30.48 in ESE 7 mph 7 mph 58% 0.00 in 598 W/m2
12:30 31.8 °F 18.7 °F 30.48 in SSE 6 mph 8 mph 58% 0.00 in 754 W/m2
12:35 31.1 °F 18.8 °F 30.48 in ESE 6 mph 8 mph 60% 0.00 in 499 W/m2
12:40 31 °F 19.1 °F 30.48 in ESE 7 mph 13 mph 61% 0.00 in 343 W/m2
12:45 30.5 °F 19 °F 30.48 in ESE 7 mph 13 mph 62% 0.00 in 480 W/m2
12:50 30.5 °F 19 °F 30.47 in East 7 mph 8 mph 62% 0.00 in 538 W/m2
12:55 31.8 °F 19.1 °F 30.47 in ESE 6 mph 8 mph 59% 0.00 in 487 W/m2
13:00 30.6 °F 19.5 °F 30.47 in ESE 6 mph 9 mph 63% 0.00 in 446 W/m2
13:05 30.2 °F 19.5 °F 30.47 in East 7 mph 12 mph 64% 0.00 in 489 W/m2
13:10 31.2 °F 19.3 °F 30.47 in East 7 mph 15 mph 61% 0.00 in 645 W/m2
13:15 31.3 °F 17.4 °F 30.46 in ESE 7 mph 15 mph 56% 0.00 in 570 W/m2
13:20 31.2 °F 17.7 °F 30.46 in SE 7 mph 7 mph 57% 0.00 in 603 W/m2
13:25 30.9 °F 17.4 °F 30.45 in East 7 mph 9 mph 57% 0.00 in 432 W/m2
13:30 31 °F 17.9 °F 30.45 in ESE 7 mph 7 mph 58% 0.00 in 480 W/m2
13:35 32.1 °F 19 °F 30.44 in East 6 mph 10 mph 58% 0.00 in 679 W/m2
13:40 32.2 °F 17.4 °F 30.44 in East 6 mph 8 mph 54% 0.00 in 719 W/m2
13:45 33.2 °F 18.8 °F 30.43 in SSE 7 mph 8 mph 55% 0.00 in 782 W/m2
13:50 32.6 °F 16.9 °F 30.43 in SE 7 mph 7 mph 52% 0.00 in 705 W/m2
13:55 32.8 °F 18.8 °F 30.43 in East 7 mph 7 mph 56% 0.00 in 824 W/m2
14:00 33.7 °F 19.2 °F 30.42 in East 7 mph 7 mph 55% 0.00 in 772 W/m2
14:05 33.1 °F 17.8 °F 30.42 in ESE 6 mph 7 mph 53% 0.00 in 684 W/m2
14:10 33.2 °F 17.9 °F 30.42 in East 5 mph 7 mph 53% 0.00 in 673 W/m2
14:15 32.9 °F 16.7 °F 30.42 in NE 6 mph 7 mph 51% 0.00 in 715 W/m2
14:20 32.9 °F 16.7 °F 30.42 in East 6 mph 9 mph 51% 0.00 in 631 W/m2
14:25 33.3 °F 15.2 °F 30.42 in ENE 5 mph 9 mph 47% 0.00 in 772 W/m2
14:30 33.4 °F 13.8 °F 30.42 in ESE 6 mph 11 mph 44% 0.00 in 499 W/m2
14:35 33.9 °F 15.8 °F 30.41 in East 6 mph 11 mph 47% 0.00 in 619 W/m2
14:40 33.5 °F 15.9 °F 30.41 in South 5 mph 11 mph 48% 0.00 in 710 W/m2
14:45 33.2 °F 15.6 °F 30.41 in East 6 mph 11 mph 48% 0.00 in 636 W/m2
14:50 33.5 °F 17.7 °F 30.41 in East 6 mph 8 mph 52% 0.00 in 515 W/m2
14:55 33.3 °F 17.1 °F 30.40 in ESE 6 mph 8 mph 51% 0.00 in 594 W/m2
15:00 33.5 °F 16.8 °F 30.40 in ENE 5 mph 5 mph 50% 0.00 in 701 W/m2
15:05 34 °F 17.3 °F 30.39 in East 5 mph 5 mph 50% 0.00 in 735 W/m2
15:10 34.2 °F 16.5 °F 30.39 in East 5 mph 7 mph 48% 0.00 in 729 W/m2
15:15 34 °F 15.9 °F 30.39 in ESE 6 mph 7 mph 47% 0.00 in 708 W/m2
15:20 33.7 °F 18.8 °F 30.39 in ENE 6 mph 6 mph 54% 0.00 in 696 W/m2
15:25 33.7 °F 18.8 °F 30.39 in East 6 mph 7 mph 54% 0.00 in 657 W/m2
15:30 33.2 °F 18.8 °F 30.39 in SE 6 mph 7 mph 55% 0.00 in 587 W/m2
15:35 33.5 °F 19.9 °F 30.38 in SE 6 mph 7 mph 57% 0.00 in 529 W/m2
15:40 33 °F 19.8 °F 30.39 in ESE 5 mph 5 mph 58% 0.00 in 547 W/m2
15:45 33.3 °F 16.6 °F 30.39 in ESE 5 mph 5 mph 50% 0.00 in 499 W/m2
15:50 32.9 °F 17.6 °F 30.38 in ESE 5 mph 6 mph 53% 0.00 in 512 W/m2
15:55 33.4 °F 19.4 °F 30.38 in ESE 5 mph 7 mph 56% 0.00 in 605 W/m2
16:00 33.5 °F 16.8 °F 30.38 in East 6 mph 6 mph 50% 0.00 in 601 W/m2
16:05 33.7 °F 16.5 °F 30.37 in ESE 6 mph 6 mph 49% 0.00 in 548 W/m2
16:10 33.7 °F 16.5 °F 30.37 in ESE 6 mph 7 mph 49% 0.00 in 508 W/m2
16:15 33.9 °F 15.8 °F 30.35 in SE 6 mph 7 mph 47% 0.00 in 513 W/m2
16:20 33.8 °F 15.7 °F 30.35 in SE 6 mph 6 mph 47% 0.00 in 499 W/m2
16:25 33.7 °F 16.1 °F 30.34 in East 6 mph 6 mph 48% 0.00 in 510 W/m2
16:30 33.8 °F 15.7 °F 30.35 in ESE 5 mph 5 mph 47% 0.00 in 427 W/m2
16:35 34 °F 19.1 °F 30.34 in East 5 mph 7 mph 54% 0.00 in 499 W/m2
16:40 34.4 °F 16.2 °F 30.34 in East 5 mph 6 mph 47% 0.00 in 415 W/m2
16:45 33.9 °F 17.7 °F 30.34 in ESE 6 mph 6 mph 51% 0.00 in 327 W/m2
16:50 33.7 °F 15.6 °F 30.33 in SE 6 mph 6 mph 47% 0.00 in 327 W/m2
16:55 33.6 °F 18.3 °F 30.33 in SE 6 mph 6 mph 53% 0.00 in 257 W/m2
17:00 33.2 °F 17.5 °F 30.33 in East 6 mph 7 mph 52% 0.00 in 281 W/m2
17:05 32.9 °F 16.3 °F 30.33 in ESE 6 mph 7 mph 50% 0.00 in 255 W/m2
17:10 32.9 °F 15.8 °F 30.33 in East 6 mph 9 mph 49% 0.00 in 241 W/m2
17:15 32.6 °F 15.5 °F 30.33 in ESE 6 mph 9 mph 49% 0.00 in 190 W/m2
17:20 32.6 °F 18.2 °F 30.32 in ESE 5 mph 5 mph 55% 0.00 in 162 W/m2
17:25 32.4 °F 16.3 °F 30.31 in ESE 5 mph 7 mph 51% 0.00 in 144 W/m2
17:30 32.2 °F 17.8 °F 30.31 in ESE 6 mph 6 mph 55% 0.00 in 134 W/m2
17:35 32.3 °F 16.2 °F 30.31 in ESE 5 mph 6 mph 51% 0.00 in 128 W/m2
17:40 32.3 °F 17.5 °F 30.30 in East 5 mph 6 mph 54% 0.00 in 123 W/m2
17:45 32.2 °F 16.1 °F 30.30 in SE 5 mph 7 mph 51% 0.00 in 120 W/m2
17:50 32.2 °F 17 °F 30.30 in ESE 6 mph 7 mph 53% 0.00 in 116 W/m2
17:55 32.2 °F 18.2 °F 30.29 in ESE 6 mph 7 mph 56% 0.00 in 111 W/m2
18:00 32.1 °F 16.4 °F 30.29 in East 5 mph 5 mph 52% 0.00 in 105 W/m2
18:05 31.9 °F 15.8 °F 30.28 in ESE 5 mph 5 mph 51% 0.00 in 100 W/m2
18:10 32 °F 17.2 °F 30.28 in East 5 mph 7 mph 54% 0.00 in 91 W/m2
18:15 32 °F 18.5 °F 30.28 in East 5 mph 7 mph 57% 0.00 in 79 W/m2
18:20 31.9 °F 17.1 °F 30.27 in ESE 6 mph 6 mph 54% 0.00 in 65 W/m2
18:25 31.8 °F 17 °F 30.28 in ESE 6 mph 6 mph 54% 0.00 in 53 W/m2
18:30 31.6 °F 16.8 °F 30.27 in East 6 mph 7 mph 54% 0.00 in 44 W/m2
18:35 31.6 °F 18.1 °F 30.27 in ESE 6 mph 7 mph 57% 0.00 in 37 W/m2
18:40 31.5 °F 17.6 °F 30.27 in ESE 5 mph 7 mph 56% 0.00 in 32 W/m2
18:45 31.5 °F 16.7 °F 30.27 in East 5 mph 7 mph 54% 0.00 in 26 W/m2
18:50 31.4 °F 17.9 °F 30.26 in SSE 5 mph 8 mph 57% 0.00 in 23 W/m2
18:55 31.3 °F 17.4 °F 30.26 in ESE 6 mph 8 mph 56% 0.00 in 19 W/m2
19:00 31.2 °F 17.3 °F 30.25 in ESE 6 mph 6 mph 56% 0.00 in 18 W/m2
19:05 31.1 °F 16.8 °F 30.25 in East 6 mph 6 mph 55% 0.00 in 14 W/m2
19:10 31 °F 16.3 °F 30.25 in ESE 6 mph 6 mph 54% 0.00 in 12 W/m2
19:15 30.9 °F 16.2 °F 30.24 in ESE 5 mph 6 mph 54% 0.00 in 11 W/m2
19:20 30.8 °F 16.1 °F 30.24 in ESE 4 mph 4 mph 54% 0.00 in 7 W/m2
19:25 30.8 °F 16.5 °F 30.24 in ESE 4 mph 4 mph 55% 0.00 in 5 W/m2
19:30 30.8 °F 15.7 °F 30.24 in East 5 mph 5 mph 53% 0.00 in 0 W/m2
19:35 30.8 °F 17.3 °F 30.24 in ESE 4 mph 5 mph 57% 0.00 in 0 W/m2
19:40 30.7 °F 16 °F 30.24 in East 4 mph 6 mph 54% 0.00 in 0 W/m2
19:45 30.7 °F 16 °F 30.24 in East 4 mph 6 mph 54% 0.00 in 0 W/m2
19:50 30.6 °F 15.9 °F 30.24 in ESE 3 mph 4 mph 54% 0.00 in 0 W/m2
19:55 30.6 °F 15.5 °F 30.24 in East 3 mph 4 mph 53% 0.00 in 0 W/m2
20:00 30.6 °F 15.9 °F 30.24 in ENE 4 mph 4 mph 54% 0.00 in 0 W/m2
20:05 30.5 °F 16.2 °F 30.24 in ESE 3 mph 4 mph 55% 0.00 in 0 W/m2
20:10 30.5 °F 16.7 °F 30.23 in SE 3 mph 3 mph 56% 0.00 in 0 W/m2
20:15 30.5 °F 16.2 °F 30.23 in ESE 3 mph 6 mph 55% 0.00 in 0 W/m2
20:20 30.3 °F 16 °F 30.23 in ESE 3 mph 6 mph 55% 0.00 in 0 W/m2
20:25 30.3 °F 16.5 °F 30.23 in East 3 mph 6 mph 56% 0.00 in 0 W/m2
20:30 30.2 °F 16.4 °F 30.23 in SSE 3 mph 3 mph 56% 0.00 in 0 W/m2
20:35 30.2 °F 16.4 °F 30.23 in ENE 4 mph 4 mph 56% 0.00 in 0 W/m2
20:40 30.2 °F 16.8 °F 30.23 in ESE 3 mph 3 mph 57% 0.00 in 0 W/m2
20:45 30.1 °F 17.1 °F 30.23 in East 3 mph 3 mph 58% 0.00 in 0 W/m2
20:50 30.1 °F 17.5 °F 30.23 in East 3 mph 3 mph 59% 0.00 in 0 W/m2
20:55 30 °F 17.8 °F 30.23 in East 3 mph 3 mph 60% 0.00 in 0 W/m2
21:00 30 °F 17.8 °F 30.23 in ENE 3 mph 3 mph 60% 0.00 in 0 W/m2
21:05 30 °F 17.8 °F 30.23 in East 3 mph 3 mph 60% 0.00 in 0 W/m2
21:10 30 °F 17.4 °F 30.22 in East 3 mph 4 mph 59% 0.00 in 0 W/m2
21:15 29.9 °F 17.3 °F 30.22 in East 4 mph 7 mph 59% 0.00 in 0 W/m2
21:20 29.9 °F 18.1 °F 30.22 in East 4 mph 4 mph 61% 0.00 in 0 W/m2
21:25 30 °F 18.5 °F 30.22 in East 3 mph 4 mph 62% 0.00 in 0 W/m2
21:30 29.9 °F 18.8 °F 30.21 in East 4 mph 4 mph 63% 0.00 in 0 W/m2
21:35 30 °F 19.3 °F 30.21 in East 4 mph 4 mph 64% 0.00 in 0 W/m2
21:40 30 °F 19.7 °F 30.21 in ENE 4 mph 4 mph 65% 0.00 in 0 W/m2
21:45 30.2 °F 19.5 °F 30.21 in NE 5 mph 5 mph 64% 0.00 in 0 W/m2
21:50 30.3 °F 19.9 °F 30.21 in East 4 mph 4 mph 65% 0.00 in 0 W/m2
21:55 30.3 °F 19.6 °F 30.21 in ENE 4 mph 4 mph 64% 0.00 in 0 W/m2
22:00 30.3 °F 19.9 °F 30.21 in ENE 4 mph 8 mph 65% 0.00 in 0 W/m2
22:05 30.3 °F 19.9 °F 30.21 in ENE 5 mph 8 mph 65% 0.00 in 0 W/m2
22:10 30.3 °F 19.6 °F 30.21 in ENE 4 mph 4 mph 64% 0.00 in 0 W/m2
22:15 30.4 °F 19.7 °F 30.20 in East 4 mph 4 mph 64% 0.00 in 0 W/m2
22:20 30.6 °F 19.9 °F 30.20 in ENE 4 mph 5 mph 64% 0.00 in 0 W/m2
22:25 30.7 °F 20.3 °F 30.20 in ENE 5 mph 5 mph 65% 0.00 in 0 W/m2
22:30 30.9 °F 20.5 °F 30.20 in SE 5 mph 5 mph 65% 0.00 in 0 W/m2
22:35 31 °F 20.2 °F 30.20 in East 5 mph 5 mph 64% 0.00 in 0 W/m2
22:40 31.2 °F 20.8 °F 30.20 in NE 5 mph 7 mph 65% 0.00 in 0 W/m2
22:45 31.4 °F 21 °F 30.19 in ENE 5 mph 7 mph 65% 0.00 in 0 W/m2
22:50 31.5 °F 21.1 °F 30.19 in ENE 5 mph 5 mph 65% 0.00 in 0 W/m2
22:55 31.5 °F 21.4 °F 30.19 in ENE 4 mph 7 mph 66% 0.00 in 0 W/m2
23:00 31.6 °F 21.5 °F 30.19 in NE 5 mph 6 mph 66% 0.00 in 0 W/m2
23:05 31.6 °F 21.5 °F 30.18 in ENE 5 mph 7 mph 66% 0.00 in 0 W/m2
23:10 31.5 °F 21.1 °F 30.17 in East 5 mph 5 mph 65% 0.00 in 0 W/m2
23:15 31.6 °F 21.5 °F 30.17 in ENE 6 mph 9 mph 66% 0.00 in 0 W/m2
23:20 31.7 °F 22 °F 30.17 in East 5 mph 7 mph 67% 0.00 in 0 W/m2
23:25 31.7 °F 21.6 °F 30.16 in ENE 6 mph 8 mph 66% 0.00 in 0 W/m2
23:30 31.8 °F 21.7 °F 30.16 in East 6 mph 6 mph 66% 0.00 in 0 W/m2
23:35 31.9 °F 21.8 °F 30.16 in East 6 mph 6 mph 66% 0.00 in 0 W/m2
23:40 31.8 °F 21.7 °F 30.16 in ENE 6 mph 8 mph 66% 0.00 in 0 W/m2
23:45 31.9 °F 21.8 °F 30.15 in East 6 mph 8 mph 66% 0.00 in 0 W/m2
23:50 32 °F 21.9 °F 30.16 in East 6 mph 6 mph 66% 0.00 in 0 W/m2
23:55 32 °F 21.9 °F 30.15 in East 5 mph 6 mph 66% 0.00 in 0 W/m2
Sand Point, Michigan, USA
Compliments of Weather Underground - 2 mb